Ana Sayfa
METAR-TAF:

METAR-TAF

Havaalanları :

George Town, Grand Cayman, Cayman Adaları

Enlem: 19-17N, Boylam: 081-21W, yükseklik: 3 m

Güncel hava durumu gözlemi

Rapor saat 03:00 UTC de 4 saat ve 29 dakika önce yapıldı.
Rüzgar doğudan 8 kt
Sıcaklık 28°C
Nem 84%
Basınç 1015 hPa
Görüş mesafesi 10 km veya daha fazla
1800 ft yükseklikte az bulutlu

METAR: MWCR 230300Z 09008KT 9999 FEW018 28/25 Q1015

Saat: 02:29 (07:29 UTC)

Tahmin

Rapor saat 23:00 UTC de 8 saat ve 29 dakika önce yapıldı.
Ayın 23'si saat 00 UTC'den ayın 23'si saat 24 UTC'ye kadar geçerli Tahmin
Rüzgar doğudan 10 kt
Görüş mesafesi 10 km veya daha fazla
1800 ft yükseklikte parçalı bulutlu
Civarda sağanaklar
Dönüşüyor
ayın 23'si saat 08 UTC'den ayın 23'si saat 10 UTC'ye kadar
Görüş mesafesi: 9000 m
1600 ft yükseklikte parçalı bulutlu
sağanak yağmurlar

TAF: MWCR 222300Z 2300/2324 08010KT 9999 VCSH SCT018 BECMG 2308/2310 9000 SHRA SCT016

4.000'den fazla havaalanı için hava durumu gözlemleri ve tahminleri (METAR ve TAF raporları).

Kullanılabilir istasyonlar harita üzerinde sarı ve kırmızı noktalarla gösterilir.

İstasyonun adını görmek için fareyi noktanın üzerinde gezdirin.

Sonrasında hava gözlem ve tahminlerini görmek için tıklayın.

Haritayı değiştirmek için: yaklaştırmak için siyah artı işaretli yeşil düğmeye ve uzaklaştırmak için de eksi işaretli düğmeye hızla tıklayın; bitişik haritalar için yeşil okları kullanın.


METAR-TAF: